createdAt,value
2016-03-19T00:00:27.126Z,1013.94
2016-03-19T00:01:27.114Z,1013.98
2016-03-19T00:02:27.100Z,1013.93
2016-03-19T00:03:27.087Z,1013.95
2016-03-19T00:04:27.059Z,1013.96
2016-03-19T00:05:27.061Z,1013.94
2016-03-19T00:06:27.033Z,1013.95
2016-03-19T00:07:27.019Z,1013.98
2016-03-19T00:08:27.007Z,1013.95
2016-03-19T00:09:26.994Z,1013.92
2016-03-19T00:10:26.981Z,1013.89
2016-03-19T00:11:26.952Z,1013.91
2016-03-19T00:12:26.939Z,1013.9
2016-03-19T00:13:26.927Z,1013.89
2016-03-19T00:14:26.913Z,1013.91
2016-03-19T00:15:26.901Z,1013.9
2016-03-19T00:16:26.872Z,1013.87
2016-03-19T00:17:26.874Z,1013.9
2016-03-19T00:18:26.847Z,1013.9
2016-03-19T00:19:26.833Z,1013.9
2016-03-19T00:20:26.821Z,1013.91
2016-03-19T00:21:26.807Z,1013.89
2016-03-19T00:22:26.779Z,1013.91
2016-03-19T00:23:26.766Z,1013.89
2016-03-19T00:24:26.754Z,1013.94
2016-03-19T00:25:26.740Z,1013.95
2016-03-19T00:26:26.727Z,1013.92
2016-03-19T00:27:26.715Z,1013.96
2016-03-19T00:28:26.686Z,1013.95
2016-03-19T00:29:26.673Z,1013.94
2016-03-19T00:30:26.660Z,1013.93
2016-03-19T00:31:26.648Z,1013.97
2016-03-19T00:32:26.634Z,1014
2016-03-19T00:33:26.606Z,1013.98
2016-03-19T00:34:26.593Z,1014.04
2016-03-19T00:35:26.580Z,1014
2016-03-19T00:36:26.567Z,1014.02
2016-03-19T00:37:26.553Z,1013.99
2016-03-19T00:38:26.542Z,1013.99
2016-03-19T00:39:26.512Z,1013.97
2016-03-19T00:40:26.500Z,1013.98
2016-03-19T00:41:26.486Z,1013.99
2016-03-19T00:42:26.474Z,1014
2016-03-19T00:43:26.460Z,1014.01
2016-03-19T00:44:26.433Z,1013.98
2016-03-19T00:45:26.420Z,1014.01
2016-03-19T00:46:26.406Z,1014.02
2016-03-19T00:47:26.394Z,1013.99
2016-03-19T00:48:26.380Z,1013.99
2016-03-19T00:49:26.368Z,1014.01
2016-03-19T00:50:26.339Z,1014.03
2016-03-19T00:51:26.327Z,1014
2016-03-19T00:52:26.313Z,1013.99
2016-03-19T00:53:26.300Z,1013.98
2016-03-19T00:54:26.288Z,1014.01
2016-03-19T00:55:26.259Z,1013.97
2016-03-19T00:56:26.246Z,1013.96
2016-03-19T00:57:26.233Z,1013.99
2016-03-19T00:58:26.220Z,1013.95
2016-03-19T00:59:26.207Z,1013.97
2016-03-19T01:00:26.194Z,1013.93
2016-03-19T01:01:26.165Z,1013.93
2016-03-19T01:02:26.153Z,1013.91
2016-03-19T01:03:26.139Z,1013.9
2016-03-19T01:04:26.127Z,1013.89
2016-03-19T01:05:26.114Z,1013.88
2016-03-19T01:06:26.101Z,1013.88
2016-03-19T01:07:26.073Z,1013.85
2016-03-19T01:08:26.050Z,1013.83
2016-03-19T01:09:26.028Z,1013.85
2016-03-19T01:10:26.006Z,1013.87
2016-03-19T01:11:25.983Z,1013.86
2016-03-19T01:12:25.945Z,1013.88
2016-03-19T01:13:25.927Z,1013.88
2016-03-19T01:14:25.926Z,1013.87
2016-03-19T01:15:25.895Z,1013.86
2016-03-19T01:16:25.879Z,1013.89
2016-03-19T01:17:25.846Z,1013.9
2016-03-19T01:18:25.832Z,1013.87
2016-03-19T01:19:25.818Z,1013.9
2016-03-19T01:20:25.803Z,1013.91
2016-03-19T01:21:25.790Z,1013.88
2016-03-19T01:22:25.776Z,1013.85
2016-03-19T01:23:25.747Z,1013.81
2016-03-19T01:24:25.733Z,1013.84
2016-03-19T01:25:25.721Z,1013.82
2016-03-19T01:26:25.707Z,1013.83
2016-03-19T01:27:25.693Z,1013.82
2016-03-19T01:28:25.665Z,1013.79
2016-03-19T01:29:25.653Z,1013.8
2016-03-19T01:30:25.640Z,1013.81
2016-03-19T01:31:25.642Z,1013.77
2016-03-19T01:32:25.613Z,1013.81
2016-03-19T01:33:25.600Z,1013.78
2016-03-19T01:34:25.572Z,1013.78
2016-03-19T01:35:25.559Z,1013.79
2016-03-19T01:36:25.547Z,1013.78
2016-03-19T01:37:25.533Z,1013.8
2016-03-19T01:38:25.520Z,1013.78
2016-03-19T01:39:25.944Z,1013.76
2016-03-19T01:40:25.478Z,1013.79
2016-03-19T01:41:25.481Z,1013.73
2016-03-19T01:42:25.452Z,1013.72
2016-03-19T01:43:25.440Z,1013.75
2016-03-19T01:44:25.426Z,1013.73
2016-03-19T01:45:25.414Z,1013.73
2016-03-19T01:46:25.385Z,1013.73
2016-03-19T01:47:25.372Z,1013.75
2016-03-19T01:48:25.360Z,1013.74
2016-03-19T01:49:25.331Z,1013.7
2016-03-19T01:50:25.318Z,1013.73
2016-03-19T01:51:25.304Z,1013.69
2016-03-19T01:52:25.293Z,1013.68
2016-03-19T01:53:25.279Z,1013.72
2016-03-19T01:54:25.266Z,1013.69
2016-03-19T01:55:25.253Z,1013.7
2016-03-19T01:56:25.225Z,1013.68
2016-03-19T01:57:25.212Z,1013.69
2016-03-19T01:58:25.198Z,1013.66
2016-03-19T01:59:25.187Z,1013.7
2016-03-19T02:00:25.157Z,1013.7
2016-03-19T02:01:25.145Z,1013.68
2016-03-19T02:02:25.131Z,1013.71
2016-03-19T02:03:25.119Z,1013.69
2016-03-19T02:04:25.106Z,1013.64
2016-03-19T02:05:25.078Z,1013.63
2016-03-19T02:06:25.064Z,1013.65
2016-03-19T02:07:25.050Z,1013.6
2016-03-19T02:08:25.039Z,1013.62
2016-03-19T02:09:25.025Z,1013.58
2016-03-19T02:10:25.013Z,1013.56
2016-03-19T02:11:24.984Z,1013.55
2016-03-19T02:12:24.971Z,1013.53
2016-03-19T02:13:24.958Z,1013.54
2016-03-19T02:14:24.944Z,1013.53
2016-03-19T02:15:24.933Z,1013.53
2016-03-19T02:16:24.919Z,1013.49
2016-03-19T02:17:24.890Z,1013.48
2016-03-19T02:18:24.877Z,1013.49
2016-03-19T02:19:24.865Z,1013.46
2016-03-19T02:20:24.851Z,1013.45
2016-03-19T02:21:24.854Z,1013.42
2016-03-19T02:22:24.810Z,1013.39
2016-03-19T02:23:24.798Z,1013.38
2016-03-19T02:24:24.784Z,1013.39
2016-03-19T02:25:24.771Z,1013.38
2016-03-19T02:26:24.759Z,1013.39
2016-03-19T02:27:24.730Z,1013.38
2016-03-19T02:28:24.717Z,1013.36
2016-03-19T02:29:24.703Z,1013.38
2016-03-19T02:30:24.691Z,1013.35
2016-03-19T02:31:24.678Z,1013.34
2016-03-19T02:32:24.650Z,1013.35
2016-03-19T02:33:24.637Z,1013.33
2016-03-19T02:34:24.624Z,1013.31
2016-03-19T02:35:24.626Z,1013.34
2016-03-19T02:36:24.597Z,1013.35
2016-03-19T02:37:24.569Z,1013.32
2016-03-19T02:38:24.556Z,1013.31
2016-03-19T02:39:24.559Z,1013.28
2016-03-19T02:40:24.530Z,1013.31
2016-03-19T02:41:24.517Z,1013.32
2016-03-19T02:42:24.505Z,1013.31
2016-03-19T02:43:24.477Z,1013.29
2016-03-19T02:44:24.463Z,1013.27
2016-03-19T02:45:24.450Z,1013.23
2016-03-19T02:46:24.438Z,1013.25
2016-03-19T02:47:24.424Z,1013.24
2016-03-19T02:48:24.411Z,1013.2
2016-03-19T02:49:24.383Z,1013.19
2016-03-19T02:50:24.371Z,1013.16
2016-03-19T02:51:24.357Z,1013.13
2016-03-19T02:52:24.343Z,1013.15
2016-03-19T02:53:24.331Z,1013.17
2016-03-19T02:54:24.318Z,1013.15
2016-03-19T02:55:24.305Z,1013.15
2016-03-19T02:56:24.276Z,1013.15
2016-03-19T02:57:24.264Z,1013.14
2016-03-19T02:58:24.251Z,1013.11
2016-03-19T02:59:24.237Z,1013.11
2016-03-19T03:00:24.226Z,1013.15
2016-03-19T03:01:24.196Z,1013.16
2016-03-19T03:02:24.199Z,1013.13
2016-03-19T03:03:24.170Z,1013.14
2016-03-19T03:04:24.158Z,1013.08
2016-03-19T03:05:24.145Z,1013.12
2016-03-19T03:06:24.131Z,1013.13
2016-03-19T03:07:24.119Z,1013.07
2016-03-19T03:08:24.090Z,1013.05
2016-03-19T03:09:24.077Z,1013.09
2016-03-19T03:10:24.064Z,1013.12
2016-03-19T03:11:24.052Z,1013.08
2016-03-19T03:12:24.039Z,1013.09
2016-03-19T03:13:24.010Z,1013.07
2016-03-19T03:14:23.996Z,1013.08
2016-03-19T03:15:23.983Z,1013.07
2016-03-19T03:16:23.971Z,1013.08
2016-03-19T03:17:23.958Z,1013.09
2016-03-19T03:18:23.945Z,1013.11
2016-03-19T03:19:23.933Z,1013.09
2016-03-19T03:20:23.904Z,1013.05
2016-03-19T03:21:23.890Z,1013.02
2016-03-19T03:22:23.877Z,1013.05
2016-03-19T03:23:23.865Z,1013.04
2016-03-19T03:24:23.852Z,1013.04
2016-03-19T03:25:23.823Z,1013.02
2016-03-19T03:26:23.810Z,1013.03
2016-03-19T03:27:23.798Z,1013.02
2016-03-19T03:28:23.784Z,1013
2016-03-19T03:29:23.771Z,1013.04
2016-03-19T03:30:23.743Z,1013.04
2016-03-19T03:31:23.731Z,1013.03
2016-03-19T03:32:23.718Z,1013.04
2016-03-19T03:33:23.704Z,1013.02
2016-03-19T03:34:23.692Z,1013.02
2016-03-19T03:35:23.881Z,1012.97
2016-03-19T03:36:23.650Z,1013
2016-03-19T03:37:23.637Z,1012.97
2016-03-19T03:38:23.625Z,1012.98
2016-03-19T03:39:23.611Z,1012.99
2016-03-19T03:40:23.598Z,1012.99
2016-03-19T03:41:23.586Z,1012.99
2016-03-19T03:42:23.557Z,1013.02
2016-03-19T03:43:23.542Z,1013.02
2016-03-19T03:44:23.528Z,1013.01
2016-03-19T03:45:23.515Z,1013.01
2016-03-19T03:46:23.502Z,1013.01
2016-03-19T03:47:23.489Z,1012.97
2016-03-19T03:48:23.460Z,1012.98
2016-03-19T03:49:23.447Z,1013.01
2016-03-19T03:50:23.434Z,1012.96
2016-03-19T03:51:23.422Z,1012.99
2016-03-19T03:52:23.409Z,1012.98
2016-03-19T03:53:23.380Z,1012.97
2016-03-19T03:54:23.368Z,1012.98
2016-03-19T03:55:23.354Z,1012.98
2016-03-19T03:56:23.341Z,1012.96
2016-03-19T03:57:23.328Z,1012.95
2016-03-19T03:58:23.316Z,1012.97
2016-03-19T03:59:23.287Z,1012.95
2016-03-19T04:00:23.273Z,1012.97
2016-03-19T04:01:23.261Z,1012.95
2016-03-19T04:02:23.248Z,1012.94
2016-03-19T04:03:23.235Z,1012.93
2016-03-19T04:04:23.222Z,1012.92
2016-03-19T04:05:23.195Z,1012.9
2016-03-19T04:06:23.181Z,1012.92
2016-03-19T04:07:23.167Z,1012.92
2016-03-19T04:08:23.155Z,1012.96
2016-03-19T04:09:23.142Z,1012.91
2016-03-19T04:10:23.129Z,1012.92
2016-03-19T04:11:23.100Z,1012.95
2016-03-19T04:12:23.088Z,1012.94
2016-03-19T04:13:23.074Z,1012.95
2016-03-19T04:14:23.062Z,1012.94
2016-03-19T04:15:23.049Z,1012.9
2016-03-19T04:16:23.036Z,1012.93
2016-03-19T04:17:23.008Z,1012.97
2016-03-19T04:18:22.994Z,1012.97
2016-03-19T04:19:22.982Z,1013
2016-03-19T04:20:22.969Z,1013.02
2016-03-19T04:21:22.956Z,1013.02
2016-03-19T04:22:22.943Z,1012.96
2016-03-19T04:23:22.913Z,1013.01
2016-03-19T04:24:22.916Z,1012.99
2016-03-19T04:25:22.904Z,1013.02
2016-03-19T04:26:22.875Z,1012.97
2016-03-19T04:27:22.863Z,1012.98
2016-03-19T04:28:23.037Z,1013.06
2016-03-19T04:29:22.821Z,1013.01
2016-03-19T04:30:22.807Z,1013.03
2016-03-19T04:31:22.795Z,1013.01
2016-03-19T04:32:22.782Z,1013.06
2016-03-19T04:33:22.769Z,1013.04
2016-03-19T04:34:22.756Z,1013.01
2016-03-19T04:35:22.742Z,1013.05
2016-03-19T04:36:22.715Z,1013.04
2016-03-19T04:37:22.701Z,1013.04
2016-03-19T04:38:22.689Z,1013.01
2016-03-19T04:39:22.676Z,1013.01
2016-03-19T04:40:22.647Z,1013.04
2016-03-19T04:41:22.650Z,1013.05
2016-03-19T04:42:22.621Z,1013.02
2016-03-19T04:43:22.609Z,1012.99
2016-03-19T04:44:22.595Z,1013
2016-03-19T04:45:22.583Z,1013.01
2016-03-19T04:46:22.554Z,1013.02
2016-03-19T04:47:22.541Z,1013.02
2016-03-19T04:48:22.528Z,1013.03
2016-03-19T04:49:22.515Z,1013.07
2016-03-19T04:50:22.503Z,1013.06
2016-03-19T04:51:22.489Z,1013.04
2016-03-19T04:52:22.477Z,1013.08
2016-03-19T04:53:22.463Z,1013.04
2016-03-19T04:54:22.435Z,1013.04
2016-03-19T04:55:22.422Z,1013.08
2016-03-19T04:56:22.409Z,1013.1
2016-03-19T04:57:22.396Z,1013.09
2016-03-19T04:58:22.368Z,1013.12
2016-03-19T04:59:22.354Z,1013.13
2016-03-19T05:00:22.342Z,1013.15
2016-03-19T05:01:22.329Z,1013.16
2016-03-19T05:02:22.316Z,1013.1
2016-03-19T05:03:22.288Z,1013.16
2016-03-19T05:04:22.274Z,1013.16
2016-03-19T05:05:22.261Z,1013.19
2016-03-19T05:06:22.249Z,1013.18
2016-03-19T05:07:22.236Z,1013.22
2016-03-19T05:08:22.222Z,1013.22
2016-03-19T05:09:22.209Z,1013.21
2016-03-19T05:10:22.181Z,1013.2
2016-03-19T05:11:22.168Z,1013.18
2016-03-19T05:12:22.170Z,1013.17
2016-03-19T05:13:22.143Z,1013.19
2016-03-19T05:14:22.130Z,1013.21
2016-03-19T05:15:22.101Z,1013.21
2016-03-19T05:16:22.103Z,1013.17
2016-03-19T05:17:22.075Z,1013.21
2016-03-19T05:18:22.061Z,1013.24
2016-03-19T05:19:22.049Z,1013.22
2016-03-19T05:20:22.035Z,1013.24
2016-03-19T05:21:22.024Z,1013.24
2016-03-19T05:22:22.010Z,1013.22
2016-03-19T05:23:21.982Z,1013.24
2016-03-19T05:24:21.968Z,1013.22
2016-03-19T05:25:21.956Z,1013.19
2016-03-19T05:26:21.927Z,1013.22
2016-03-19T05:27:21.929Z,1013.22
2016-03-19T05:28:21.902Z,1013.24
2016-03-19T05:29:21.888Z,1013.26
2016-03-19T05:30:21.876Z,1013.22
2016-03-19T05:31:21.862Z,1013.25
2016-03-19T05:32:21.834Z,1013.24
2016-03-19T05:33:21.821Z,1013.28
2016-03-19T05:34:21.808Z,1013.26
2016-03-19T05:35:21.796Z,1013.29
2016-03-19T05:36:21.782Z,1013.3
2016-03-19T05:37:21.754Z,1013.27
2016-03-19T05:38:21.756Z,1013.29
2016-03-19T05:39:21.728Z,1013.29
2016-03-19T05:40:21.715Z,1013.28
2016-03-19T05:41:21.702Z,1013.28
2016-03-19T05:42:21.689Z,1013.25
2016-03-19T05:43:21.675Z,1013.3
2016-03-19T05:44:21.648Z,1013.26
2016-03-19T05:45:21.634Z,1013.28
2016-03-19T05:46:21.622Z,1013.24
2016-03-19T05:47:21.609Z,1013.25
2016-03-19T05:48:21.580Z,1013.23
2016-03-19T05:49:21.567Z,1013.23
2016-03-19T05:50:21.554Z,1013.25
2016-03-19T05:51:21.542Z,1013.26
2016-03-19T05:52:21.528Z,1013.28
2016-03-19T05:53:21.516Z,1013.27
2016-03-19T05:54:21.487Z,1013.26
2016-03-19T05:55:21.490Z,1013.29
2016-03-19T05:56:21.461Z,1013.31
2016-03-19T05:57:21.448Z,1013.28
2016-03-19T05:58:21.435Z,1013.33
2016-03-19T05:59:21.422Z,1013.32
2016-03-19T06:00:21.394Z,1013.34
2016-03-19T06:01:21.381Z,1013.33
2016-03-19T06:02:21.367Z,1013.38
2016-03-19T06:03:21.355Z,1013.36
2016-03-19T06:04:21.342Z,1013.43
2016-03-19T06:05:21.329Z,1013.38
2016-03-19T06:06:21.300Z,1013.37
2016-03-19T06:07:21.287Z,1013.37
2016-03-19T06:08:21.275Z,1013.34
2016-03-19T06:09:21.261Z,1013.33
2016-03-19T06:10:21.249Z,1013.37
2016-03-19T06:11:21.236Z,1013.37
2016-03-19T06:12:21.206Z,1013.35
2016-03-19T06:13:21.210Z,1013.4
2016-03-19T06:14:21.181Z,1013.45
2016-03-19T06:15:21.169Z,1013.46
2016-03-19T06:16:21.155Z,1013.46
2016-03-19T06:17:21.127Z,1013.45
2016-03-19T06:18:21.317Z,1013.48
2016-03-19T06:19:21.100Z,1013.5
2016-03-19T06:20:21.088Z,1013.5
2016-03-19T06:21:21.075Z,1013.51
2016-03-19T06:22:21.063Z,1013.52
2016-03-19T06:23:21.049Z,1013.53
2016-03-19T06:24:21.021Z,1013.53
2016-03-19T06:25:21.007Z,1013.57
2016-03-19T06:26:20.995Z,1013.54
2016-03-19T06:27:20.982Z,1013.58
2016-03-19T06:28:20.968Z,1013.54
2016-03-19T06:29:20.956Z,1013.57
2016-03-19T06:30:20.927Z,1013.59
2016-03-19T06:31:20.918Z,1013.57
2016-03-19T06:32:20.904Z,1013.61
2016-03-19T06:33:20.891Z,1013.6
2016-03-19T06:34:20.863Z,1013.59
2016-03-19T06:35:20.850Z,1013.61
2016-03-19T06:36:20.837Z,1013.66
2016-03-19T06:37:20.824Z,1013.68
2016-03-19T06:38:20.811Z,1013.67
2016-03-19T06:39:20.798Z,1013.67
2016-03-19T06:40:20.769Z,1013.68
2016-03-19T06:41:20.773Z,1013.72
2016-03-19T06:42:20.744Z,1013.71
2016-03-19T06:43:20.731Z,1013.69
2016-03-19T06:44:20.718Z,1013.71
2016-03-19T06:45:20.705Z,1013.75
2016-03-19T06:46:20.692Z,1013.71
2016-03-19T06:47:20.678Z,1013.73
2016-03-19T06:48:20.651Z,1013.74
2016-03-19T06:49:20.638Z,1013.72
2016-03-19T06:50:20.625Z,1013.76
2016-03-19T06:51:20.611Z,1013.73
2016-03-19T06:52:20.599Z,1013.74
2016-03-19T06:53:20.570Z,1013.75
2016-03-19T06:54:20.557Z,1013.79
2016-03-19T06:55:20.544Z,1013.82
2016-03-19T06:56:20.532Z,1013.8
2016-03-19T06:57:20.518Z,1013.81
2016-03-19T06:58:20.505Z,1013.8
2016-03-19T06:59:20.477Z,1013.8
2016-03-19T07:00:20.464Z,1013.84
2016-03-19T07:01:20.451Z,1013.81
2016-03-19T07:02:20.438Z,1013.83
2016-03-19T07:03:20.425Z,1013.83
2016-03-19T07:04:20.757Z,1013.79
2016-03-19T07:05:20.384Z,1013.85
2016-03-19T07:06:20.387Z,1013.82
2016-03-19T07:07:20.358Z,1013.85
2016-03-19T07:08:20.345Z,1013.85
2016-03-19T07:09:20.332Z,1013.88
2016-03-19T07:10:20.320Z,1013.85
2016-03-19T07:11:20.306Z,1013.84
2016-03-19T07:12:20.293Z,1013.87
2016-03-19T07:13:20.264Z,1013.91
2016-03-19T07:14:20.251Z,1013.9
2016-03-19T07:15:20.239Z,1013.89
2016-03-19T07:16:20.225Z,1013.89
2016-03-19T07:17:20.214Z,1013.89
2016-03-19T07:18:20.200Z,1013.92
2016-03-19T07:19:20.172Z,1013.92
2016-03-19T07:20:20.158Z,1013.94
2016-03-19T07:21:20.145Z,1013.93
2016-03-19T07:22:20.133Z,1013.96
2016-03-19T07:23:20.120Z,1013.98
2016-03-19T07:24:20.107Z,1013.99
2016-03-19T07:25:20.094Z,1013.99
2016-03-19T07:26:20.081Z,1013.99
2016-03-19T07:27:20.052Z,1014.02
2016-03-19T07:28:20.039Z,1013.99
2016-03-19T07:29:20.027Z,1014.03
2016-03-19T07:30:20.030Z,1014.05
2016-03-19T07:31:20.001Z,1014.07
2016-03-19T07:32:19.988Z,1014.02
2016-03-19T07:33:19.975Z,1014.05
2016-03-19T07:34:19.946Z,1014.09
2016-03-19T07:35:19.933Z,1014.09
2016-03-19T07:36:19.921Z,1014.08
2016-03-19T07:37:19.907Z,1014.09
2016-03-19T07:38:19.895Z,1014.06
2016-03-19T07:39:19.882Z,1014.08
2016-03-19T07:40:19.868Z,1014.09
2016-03-19T07:41:19.840Z,1014.1
2016-03-19T07:42:19.826Z,1014.06
2016-03-19T07:43:19.815Z,1014.11
2016-03-19T07:44:19.801Z,1014.06
2016-03-19T07:45:19.789Z,1014.11
2016-03-19T07:46:19.775Z,1014.06
2016-03-19T07:47:19.762Z,1014.04
2016-03-19T07:48:19.734Z,1014.11
2016-03-19T07:49:19.720Z,1014.07
2016-03-19T07:50:19.708Z,1014.05
2016-03-19T07:51:19.695Z,1014.06
2016-03-19T07:52:19.683Z,1014.06
2016-03-19T07:53:19.669Z,1014.02
2016-03-19T07:54:19.656Z,1014.05
2016-03-19T07:55:19.627Z,1014.03
2016-03-19T07:56:19.630Z,1014.08
2016-03-19T07:57:19.601Z,1014.05
2016-03-19T07:58:19.588Z,1014.07
2016-03-19T07:59:19.576Z,1014.09
2016-03-19T08:00:19.563Z,1014.09
2016-03-19T08:01:19.549Z,1014.14
2016-03-19T08:02:19.537Z,1014.13
2016-03-19T08:03:19.524Z,1014.12
2016-03-19T08:04:19.495Z,1014.15
2016-03-19T08:05:19.483Z,1014.11
2016-03-19T08:06:19.470Z,1014.12
2016-03-19T08:07:19.457Z,1014.14
2016-03-19T08:08:19.443Z,1014.15
2016-03-19T08:09:19.431Z,1014.16
2016-03-19T08:10:19.417Z,1014.16
2016-03-19T08:11:19.404Z,1014.17
2016-03-19T08:12:19.392Z,1014.16
2016-03-19T08:13:19.364Z,1014.16
2016-03-19T08:14:19.351Z,1014.15
2016-03-19T08:15:19.338Z,1014.18
2016-03-19T08:16:19.340Z,1014.19
2016-03-19T08:17:19.312Z,1014.17
2016-03-19T08:18:19.298Z,1014.16
2016-03-19T08:19:19.286Z,1014.18
2016-03-19T08:20:19.273Z,1014.16
2016-03-19T08:21:19.245Z,1014.19
2016-03-19T08:22:19.231Z,1014.17
2016-03-19T08:23:19.219Z,1014.19
2016-03-19T08:24:19.206Z,1014.23
2016-03-19T08:25:19.192Z,1014.19
2016-03-19T08:26:19.180Z,1014.22
2016-03-19T08:27:19.167Z,1014.25
2016-03-19T08:28:19.155Z,1014.22
2016-03-19T08:29:19.141Z,1014.27
2016-03-19T08:30:19.127Z,1014.27
2016-03-19T08:31:19.115Z,1014.25
2016-03-19T08:32:19.086Z,1014.24
2016-03-19T08:33:19.074Z,1014.23
2016-03-19T08:34:19.061Z,1014.24
2016-03-19T08:35:19.049Z,1014.24
2016-03-19T08:36:19.035Z,1014.24
2016-03-19T08:37:19.021Z,1014.26
2016-03-19T08:38:19.009Z,1014.25
2016-03-19T08:39:18.996Z,1014.27
2016-03-19T08:40:18.982Z,1014.27
2016-03-19T08:41:18.970Z,1014.26
2016-03-19T08:42:18.957Z,1014.28
2016-03-19T08:43:18.945Z,1014.3
2016-03-19T08:44:18.931Z,1014.3
2016-03-19T08:45:18.918Z,1014.26
2016-03-19T08:46:18.890Z,1014.25
2016-03-19T08:47:18.876Z,1014.3
2016-03-19T08:48:18.864Z,1014.31
2016-03-19T08:49:18.850Z,1014.3
2016-03-19T08:50:18.839Z,1014.3
2016-03-19T08:51:18.825Z,1014.3
2016-03-19T08:52:18.811Z,1014.31
2016-03-19T08:53:18.800Z,1014.33
2016-03-19T08:54:18.786Z,1014.32
2016-03-19T08:55:18.773Z,1014.34
2016-03-19T08:56:18.760Z,1014.31
2016-03-19T08:57:18.748Z,1014.38
2016-03-19T08:58:18.750Z,1014.44
2016-03-19T08:59:18.721Z,1014.41
2016-03-19T09:00:18.709Z,1014.38
2016-03-19T09:01:18.680Z,1014.41
2016-03-19T09:02:18.667Z,1014.4
2016-03-19T09:03:18.669Z,1014.43
2016-03-19T09:04:18.641Z,1014.43
2016-03-19T09:05:18.629Z,1014.44
2016-03-19T09:06:18.615Z,1014.43
2016-03-19T09:07:18.603Z,1014.45
2016-03-19T09:08:18.590Z,1014.45
2016-03-19T09:09:18.577Z,1014.41
2016-03-19T09:10:18.563Z,1014.43
2016-03-19T09:11:18.551Z,1014.45
2016-03-19T09:12:18.537Z,1014.49
2016-03-19T09:13:18.603Z,1014.51
2016-03-19T09:14:18.511Z,1014.5
2016-03-19T09:15:18.499Z,1014.49
2016-03-19T09:16:18.486Z,1014.52
2016-03-19T09:17:18.473Z,1014.51
2016-03-19T09:18:18.460Z,1014.5
2016-03-19T09:19:18.447Z,1014.5
2016-03-19T09:20:18.434Z,1014.48
2016-03-19T09:21:18.421Z,1014.56
2016-03-19T09:22:18.409Z,1014.51
2016-03-19T09:23:18.380Z,1014.5
2016-03-19T09:24:18.367Z,1014.51
2016-03-19T09:25:18.353Z,1014.51
2016-03-19T09:26:18.341Z,1014.53
2016-03-19T09:27:18.328Z,1014.48
2016-03-19T09:28:18.330Z,1014.52
2016-03-19T09:29:18.302Z,1014.53
2016-03-19T09:30:18.289Z,1014.49
2016-03-19T09:31:18.277Z,1014.52
2016-03-19T09:32:18.279Z,1014.51
2016-03-19T09:33:18.250Z,1014.52
2016-03-19T09:34:18.238Z,1014.53
2016-03-19T09:35:18.224Z,1014.51
2016-03-19T09:36:18.212Z,1014.53
2016-03-19T09:37:18.199Z,1014.49
2016-03-19T09:38:18.186Z,1014.48
2016-03-19T09:39:18.173Z,1014.49
2016-03-19T09:40:18.160Z,1014.52
2016-03-19T09:41:18.147Z,1014.53
2016-03-19T09:42:18.134Z,1014.53
2016-03-19T09:43:18.184Z,1014.55
2016-03-19T09:44:18.109Z,1014.57
2016-03-19T09:45:18.095Z,1014.55
2016-03-19T09:46:18.082Z,1014.5
2016-03-19T09:47:18.069Z,1014.57
2016-03-19T09:48:18.057Z,1014.57
2016-03-19T09:49:18.028Z,1014.54
2016-03-19T09:50:18.031Z,1014.5
2016-03-19T09:51:18.018Z,1014.55
2016-03-19T09:52:17.989Z,1014.55
2016-03-19T09:53:17.976Z,1014.59
2016-03-19T09:54:17.963Z,1014.59
2016-03-19T09:55:17.950Z,1014.59
2016-03-19T09:56:17.937Z,1014.58
2016-03-19T09:57:17.924Z,1014.61
2016-03-19T09:58:17.911Z,1014.6
2016-03-19T09:59:17.899Z,1014.59
2016-03-19T10:00:17.886Z,1014.59
2016-03-19T10:01:17.873Z,1014.63
2016-03-19T10:02:17.860Z,1014.6
2016-03-19T10:03:17.847Z,1014.58
2016-03-19T10:04:17.833Z,1014.56
2016-03-19T10:05:17.836Z,1014.55
2016-03-19T10:06:17.808Z,1014.53
2016-03-19T10:07:17.796Z,1014.54
2016-03-19T10:08:17.782Z,1014.56
2016-03-19T10:09:17.769Z,1014.53
2016-03-19T10:10:17.756Z,1014.57
2016-03-19T10:11:17.743Z,1014.57
2016-03-19T10:12:17.730Z,1014.54
2016-03-19T10:13:17.718Z,1014.56
2016-03-19T10:14:17.705Z,1014.54
2016-03-19T10:15:17.678Z,1014.59
2016-03-19T10:16:17.649Z,1014.64
2016-03-19T10:17:17.620Z,1014.58
2016-03-19T10:18:17.592Z,1014.6
2016-03-19T10:19:17.562Z,1014.6
2016-03-19T10:20:17.559Z,1014.6
2016-03-19T10:21:17.525Z,1014.61
2016-03-19T10:22:17.507Z,1014.61
2016-03-19T10:23:17.489Z,1014.6
2016-03-19T10:24:17.470Z,1014.64
2016-03-19T10:25:17.454Z,1014.58
2016-03-19T10:26:17.440Z,1014.58
2016-03-19T10:27:17.425Z,1014.58
2016-03-19T10:28:17.426Z,1014.57
2016-03-19T10:29:17.396Z,1014.56
2016-03-19T10:30:17.381Z,1014.57
2016-03-19T10:31:17.368Z,1014.59
2016-03-19T10:32:17.354Z,1014.6
2016-03-19T10:33:17.356Z,1014.6
2016-03-19T10:34:17.327Z,1014.61
2016-03-19T10:35:17.314Z,1014.58
2016-03-19T10:36:17.300Z,1014.59
2016-03-19T10:37:17.302Z,1014.61
2016-03-19T10:38:17.289Z,1014.61
2016-03-19T10:39:17.276Z,1014.63
2016-03-19T10:40:17.263Z,1014.64
2016-03-19T10:41:17.250Z,1014.58
2016-03-19T10:42:17.236Z,1014.58
2016-03-19T10:43:17.224Z,1014.55
2016-03-19T10:44:17.211Z,1014.54
2016-03-19T10:45:17.198Z,1014.55
2016-03-19T10:46:17.186Z,1014.52
2016-03-19T10:47:17.172Z,1014.53
2016-03-19T10:48:17.160Z,1014.52
2016-03-19T10:49:17.146Z,1014.52
2016-03-19T10:50:17.149Z,1014.53
2016-03-19T10:51:17.136Z,1014.52
2016-03-19T10:52:17.123Z,1014.47
2016-03-19T10:53:17.110Z,1014.51
2016-03-19T10:54:17.097Z,1014.49
2016-03-19T10:55:17.085Z,1014.48
2016-03-19T10:56:17.072Z,1014.45
2016-03-19T10:57:17.059Z,1014.49
2016-03-19T10:58:17.062Z,1014.42
2016-03-19T10:59:17.032Z,1014.43
2016-03-19T11:00:17.020Z,1014.46
2016-03-19T11:01:17.007Z,1014.42
2016-03-19T11:02:16.993Z,1014.43
2016-03-19T11:03:16.996Z,1014.43
2016-03-19T11:04:16.984Z,1014.41
2016-03-19T11:05:16.970Z,1014.37
2016-03-19T11:06:16.958Z,1014.41
2016-03-19T11:07:16.945Z,1014.41
2016-03-19T11:08:16.931Z,1014.41
2016-03-19T11:09:16.919Z,1014.42
2016-03-19T11:10:16.906Z,1014.39
2016-03-19T11:11:16.893Z,1014.45
2016-03-19T11:12:16.895Z,1014.45
2016-03-19T11:13:16.867Z,1014.47
2016-03-19T11:14:16.870Z,1014.42
2016-03-19T11:15:16.857Z,1014.45
2016-03-19T11:16:16.844Z,1014.44
2016-03-19T11:17:16.831Z,1014.46
2016-03-19T11:18:16.818Z,1014.48
2016-03-19T11:19:16.805Z,1014.49
2016-03-19T11:20:16.791Z,1014.51
2016-03-19T11:21:16.780Z,1014.5
2016-03-19T11:22:16.766Z,1014.48
2016-03-19T11:23:16.769Z,1014.49
2016-03-19T11:24:16.756Z,1014.49
2016-03-19T11:25:16.743Z,1014.47
2016-03-19T11:26:16.730Z,1014.49
2016-03-19T11:27:16.717Z,1014.47
2016-03-19T11:28:16.705Z,1014.43
2016-03-19T11:29:16.691Z,1014.47
2016-03-19T11:30:16.679Z,1014.46
2016-03-19T11:31:16.665Z,1014.47
2016-03-19T11:32:16.653Z,1014.47
2016-03-19T11:33:16.639Z,1014.47
2016-03-19T11:34:16.626Z,1014.48
2016-03-19T11:35:16.614Z,1014.5
2016-03-19T11:36:16.601Z,1014.5
2016-03-19T11:37:16.588Z,1014.47
2016-03-19T11:38:16.576Z,1014.48
2016-03-19T11:39:16.562Z,1014.49
2016-03-19T11:40:16.565Z,1014.5
2016-03-19T11:41:16.552Z,1014.49
2016-03-19T11:42:16.539Z,1014.46
2016-03-19T11:43:16.525Z,1014.47
2016-03-19T11:44:16.513Z,1014.46
2016-03-19T11:45:16.499Z,1014.43
2016-03-19T11:46:16.486Z,1014.41
2016-03-19T11:47:16.475Z,1014.4
2016-03-19T11:48:16.477Z,1014.39
2016-03-19T11:49:16.464Z,1014.39
2016-03-19T11:50:16.436Z,1014.4
2016-03-19T11:51:16.438Z,1014.4
2016-03-19T11:52:16.424Z,1014.41
2016-03-19T11:53:16.413Z,1014.42
2016-03-19T11:54:16.399Z,1014.36
2016-03-19T11:55:16.386Z,1014.37
2016-03-19T11:56:16.373Z,1014.42
2016-03-19T11:57:16.360Z,1014.4
2016-03-19T11:58:16.348Z,1014.37
2016-03-19T11:59:16.334Z,1014.42
2016-03-19T12:00:16.321Z,1014.39
2016-03-19T12:01:16.324Z,1014.4
2016-03-19T12:02:16.311Z,1014.38
2016-03-19T12:03:16.299Z,1014.36
2016-03-19T12:04:16.285Z,1014.39
2016-03-19T12:05:16.273Z,1014.31
2016-03-19T12:06:16.259Z,1014.34
2016-03-19T12:07:16.247Z,1014.32
2016-03-19T12:08:16.234Z,1014.29